createdAt,value
2019-05-10T00:00:43.194Z,12.77
2019-05-10T00:03:28.901Z,13.37
2019-05-10T00:06:14.665Z,12.70
2019-05-10T00:08:46.603Z,13.87
2019-05-10T00:11:39.663Z,14.10
2019-05-10T00:14:41.834Z,13.33
2019-05-10T00:17:17.022Z,13.43
2019-05-10T00:19:44.511Z,13.60
2019-05-10T00:22:12.212Z,12.93
2019-05-10T00:24:39.766Z,14.57
2019-05-10T00:27:07.346Z,14.70
2019-05-10T00:29:34.831Z,14.80
2019-05-10T00:32:02.174Z,12.90
2019-05-10T00:34:29.670Z,14.20
2019-05-10T00:36:57.076Z,14.03
2019-05-10T00:39:24.573Z,14.20
2019-05-10T00:41:52.571Z,15.70
2019-05-10T00:44:20.112Z,14.60
2019-05-10T00:46:47.659Z,13.67
2019-05-10T00:49:15.224Z,15.17
2019-05-10T00:51:42.657Z,13.27
2019-05-10T00:54:10.235Z,14.33
2019-05-10T00:56:37.640Z,15.27
2019-05-10T00:59:05.283Z,17.10
2019-05-10T01:01:32.608Z,15.37
2019-05-10T01:04:00.196Z,16.27
2019-05-10T01:06:27.633Z,15.33
2019-05-10T01:08:54.962Z,15.20
2019-05-10T01:11:22.448Z,16.40
2019-05-10T01:13:50.979Z,14.90
2019-05-10T01:16:18.342Z,14.53
2019-05-10T01:18:45.706Z,16.20
2019-05-10T01:21:13.762Z,18.00
2019-05-10T01:23:41.420Z,15.97
2019-05-10T01:26:08.874Z,15.40
2019-05-10T01:28:36.501Z,16.20
2019-05-10T01:31:04.058Z,16.33
2019-05-10T01:33:31.611Z,16.23
2019-05-10T01:35:58.949Z,18.40
2019-05-10T01:38:26.391Z,16.83
2019-05-10T01:40:54.046Z,16.50
2019-05-10T01:43:21.486Z,17.53
2019-05-10T01:45:48.954Z,16.80
2019-05-10T01:48:16.216Z,18.17
2019-05-10T01:50:43.688Z,17.30
2019-05-10T01:53:11.197Z,18.07
2019-05-10T01:55:51.683Z,16.40
2019-05-10T01:58:08.010Z,17.20
2019-05-10T02:00:35.435Z,16.20
2019-05-10T02:03:02.889Z,18.80
2019-05-10T02:05:30.489Z,18.13
2019-05-10T02:07:57.932Z,17.87
2019-05-10T02:10:25.294Z,17.30
2019-05-10T02:12:52.694Z,17.73
2019-05-10T02:15:20.202Z,17.80
2019-05-10T02:17:47.731Z,17.43
2019-05-10T02:20:15.384Z,18.50
2019-05-10T02:22:43.038Z,18.67
2019-05-10T02:25:10.831Z,18.30
2019-05-10T02:27:38.324Z,19.50
2019-05-10T02:32:53.221Z,18.90
2019-05-10T02:35:20.775Z,18.10
2019-05-10T02:37:48.129Z,18.57
2019-05-10T02:40:16.787Z,17.90
2019-05-10T02:42:44.305Z,20.67
2019-05-10T02:45:12.194Z,19.83
2019-05-10T02:47:40.157Z,18.40
2019-05-10T02:50:08.687Z,20.83
2019-05-10T02:52:36.210Z,21.60
2019-05-10T02:55:03.999Z,19.53
2019-05-10T02:57:32.316Z,19.70
2019-05-10T03:00:03.787Z,20.60
2019-05-10T03:02:33.315Z,21.70
2019-05-10T03:05:02.559Z,20.07
2019-05-10T03:07:34.266Z,20.10
2019-05-10T03:10:03.361Z,20.90
2019-05-10T03:12:30.858Z,20.03
2019-05-10T03:14:58.600Z,20.23
2019-05-10T03:17:27.903Z,21.83
2019-05-10T03:19:55.679Z,21.53
2019-05-10T03:22:25.558Z,20.60
2019-05-10T03:24:53.272Z,22.27
2019-05-10T03:27:21.696Z,20.97
2019-05-10T03:29:49.298Z,21.50
2019-05-10T03:32:16.843Z,21.53
2019-05-10T03:34:45.631Z,21.60
2019-05-10T03:37:13.364Z,19.37
2019-05-10T03:39:43.861Z,20.13
2019-05-10T03:42:11.379Z,21.17
2019-05-10T03:44:38.775Z,20.70
2019-05-10T03:47:08.831Z,21.10
2019-05-10T03:49:36.331Z,21.83
2019-05-10T03:52:03.779Z,20.73
2019-05-10T03:54:31.363Z,20.87
2019-05-10T03:57:12.162Z,19.67
2019-05-10T03:59:28.251Z,22.17
2019-05-10T04:01:55.904Z,21.33
2019-05-10T04:04:23.311Z,20.47
2019-05-10T04:06:50.993Z,21.00
2019-05-10T04:09:18.536Z,21.83
2019-05-10T04:11:46.047Z,21.37
2019-05-10T04:14:13.431Z,20.90
2019-05-10T04:16:41.000Z,20.93
2019-05-10T04:19:08.509Z,20.20
2019-05-10T04:21:36.072Z,22.17
2019-05-10T04:24:04.973Z,21.53
2019-05-10T04:26:33.692Z,21.53
2019-05-10T04:29:01.248Z,19.57
2019-05-10T04:31:29.276Z,20.53
2019-05-10T04:33:56.820Z,19.13
2019-05-10T04:36:25.401Z,17.87
2019-05-10T04:38:53.053Z,16.13
2019-05-10T04:41:20.539Z,17.97
2019-05-10T04:43:48.105Z,16.47
2019-05-10T04:46:15.629Z,15.57
2019-05-10T04:48:43.200Z,18.57
2019-05-10T04:51:10.978Z,17.67
2019-05-10T04:53:38.637Z,18.17
2019-05-10T04:56:08.363Z,17.97
2019-05-10T04:58:36.014Z,17.20
2019-05-10T05:01:03.546Z,16.37
2019-05-10T05:03:31.187Z,16.83
2019-05-10T05:05:58.864Z,16.60
2019-05-10T05:08:26.426Z,16.57
2019-05-10T05:10:53.997Z,16.10
2019-05-10T05:13:21.494Z,16.10
2019-05-10T05:15:50.242Z,19.07
2019-05-10T05:18:17.862Z,18.10
2019-05-10T05:20:45.310Z,18.73
2019-05-10T05:23:12.818Z,19.27
2019-05-10T05:25:41.725Z,16.73
2019-05-10T05:28:09.590Z,18.60
2019-05-10T05:30:38.809Z,19.97
2019-05-10T05:33:09.774Z,19.53
2019-05-10T05:35:43.067Z,18.50
2019-05-10T05:38:10.612Z,18.40
2019-05-10T05:40:38.177Z,18.90
2019-05-10T05:43:08.159Z,20.57
2019-05-10T05:45:36.489Z,20.47
2019-05-10T05:48:04.081Z,18.00
2019-05-10T05:50:31.646Z,19.17
2019-05-10T05:52:59.076Z,19.47
2019-05-10T05:55:30.568Z,16.70
2019-05-10T05:57:59.223Z,19.07
2019-05-10T06:00:25.366Z,20.60
2019-05-10T06:02:52.850Z,20.70
2019-05-10T06:05:33.519Z,18.87
2019-05-10T06:07:52.302Z,20.43
2019-05-10T06:10:20.026Z,20.17
2019-05-10T06:12:50.306Z,20.80
2019-05-10T06:15:23.139Z,20.77
2019-05-10T06:17:56.016Z,20.90
2019-05-10T06:20:16.770Z,21.70
2019-05-10T06:23:04.960Z,21.87
2019-05-10T06:25:13.741Z,22.37
2019-05-10T06:28:01.250Z,20.10
2019-05-10T06:30:28.857Z,20.27
2019-05-10T06:33:00.309Z,22.73
2019-05-10T06:35:25.534Z,25.23
2019-05-10T06:37:52.931Z,26.70
2019-05-10T06:40:32.612Z,23.83
2019-05-10T06:42:49.690Z,26.33
2019-05-10T06:45:17.456Z,27.90
2019-05-10T06:47:47.684Z,26.70
2019-05-10T06:50:15.338Z,26.37
2019-05-10T06:52:42.982Z,25.80
2019-05-10T06:55:12.513Z,27.87
2019-05-10T06:57:39.911Z,20.63
2019-05-10T07:00:11.329Z,16.93
2019-05-10T07:02:38.745Z,15.10
2019-05-10T07:05:06.934Z,9.47
2019-05-10T07:07:43.680Z,11.20
2019-05-10T07:10:13.037Z,12.57
2019-05-10T07:12:33.931Z,12.40
2019-05-10T07:15:03.351Z,12.90
2019-05-10T07:17:30.958Z,13.93
2019-05-10T07:19:58.421Z,12.27
2019-05-10T07:22:28.985Z,13.00
2019-05-10T07:25:04.330Z,14.80
2019-05-10T07:27:28.086Z,11.87
2019-05-10T07:29:55.606Z,12.97
2019-05-10T07:32:24.599Z,12.00
2019-05-10T07:35:00.429Z,8.53
2019-05-10T07:37:21.982Z,7.50
2019-05-10T07:39:49.462Z,6.50
2019-05-10T07:42:16.822Z,5.30
2019-05-10T07:44:46.675Z,6.33
2019-05-10T07:47:13.763Z,6.30
2019-05-10T07:49:41.622Z,5.80
2019-05-10T07:52:09.095Z,6.13
2019-05-10T07:54:37.413Z,6.10
2019-05-10T07:57:07.871Z,6.73
2019-05-10T07:59:49.572Z,6.77
2019-05-10T08:02:05.947Z,6.80
2019-05-10T08:04:33.981Z,5.83
2019-05-10T08:07:01.418Z,6.27
2019-05-10T08:09:31.517Z,5.67
2019-05-10T08:12:03.326Z,4.47
2019-05-10T08:14:28.994Z,4.60
2019-05-10T08:17:01.972Z,5.67
2019-05-10T08:19:25.982Z,5.10
2019-05-10T08:21:56.476Z,5.03
2019-05-10T08:24:22.850Z,5.63
2019-05-10T08:26:57.149Z,5.30
2019-05-10T08:29:19.819Z,5.57
2019-05-10T08:31:52.792Z,4.40
2019-05-10T08:34:16.807Z,4.90
2019-05-10T08:36:47.612Z,4.80
2019-05-10T08:39:14.247Z,4.57
2019-05-10T08:41:43.290Z,4.60
2019-05-10T08:44:19.433Z,4.83
2019-05-10T08:46:43.734Z,5.30
2019-05-10T08:49:12.900Z,4.60
2019-05-10T08:51:47.164Z,4.57
2019-05-10T08:54:09.309Z,5.80
2019-05-10T08:56:37.023Z,5.20
2019-05-10T08:59:09.382Z,6.40
2019-05-10T09:01:44.816Z,7.30
2019-05-10T09:04:06.772Z,8.67
2019-05-10T09:06:35.702Z,6.83
2019-05-10T09:09:08.498Z,6.80
2019-05-10T09:11:35.703Z,7.10
2019-05-10T09:14:03.429Z,6.90
2019-05-10T09:16:40.038Z,6.00
2019-05-10T09:19:02.484Z,4.60
2019-05-10T09:21:32.024Z,4.70
2019-05-10T09:24:03.394Z,5.53
2019-05-10T09:26:28.773Z,6.47
2019-05-10T09:28:57.846Z,6.10
2019-05-10T09:31:26.667Z,5.63
2019-05-10T09:33:54.491Z,6.07
2019-05-10T09:36:23.090Z,6.90
2019-05-10T09:38:52.715Z,6.77
2019-05-10T09:41:22.554Z,6.87
2019-05-10T09:43:50.584Z,6.00
2019-05-10T09:46:19.315Z,7.00
2019-05-10T09:48:46.991Z,7.27
2019-05-10T09:51:19.061Z,7.00
2019-05-10T09:53:44.375Z,6.00
2019-05-10T09:56:12.028Z,7.60
2019-05-10T09:58:39.540Z,7.80
2019-05-10T10:01:17.787Z,7.97
2019-05-10T10:03:43.084Z,6.70
2019-05-10T10:06:11.111Z,7.33
2019-05-10T10:08:38.444Z,6.90
2019-05-10T10:11:14.063Z,6.87
2019-05-10T10:13:43.050Z,6.63
2019-05-10T10:16:12.639Z,8.00
2019-05-10T10:18:37.196Z,4.80
2019-05-10T10:21:04.896Z,4.73
2019-05-10T10:23:34.787Z,5.00
2019-05-10T10:26:01.735Z,4.10
2019-05-10T10:28:29.195Z,5.73
2019-05-10T10:31:03.390Z,4.17
2019-05-10T10:33:29.049Z,4.47
2019-05-10T10:36:04.391Z,4.43
2019-05-10T10:38:30.970Z,4.10
2019-05-10T10:40:57.575Z,4.27
2019-05-10T10:43:27.085Z,4.63
2019-05-10T10:45:54.202Z,4.80
2019-05-10T10:48:22.946Z,4.20
2019-05-10T10:50:55.535Z,3.77
2019-05-10T10:53:19.946Z,3.30
2019-05-10T10:55:54.184Z,4.10
2019-05-10T10:58:18.525Z,3.67
2019-05-10T11:00:48.111Z,3.37
2019-05-10T11:03:15.705Z,2.97
2019-05-10T11:05:43.834Z,3.30
2019-05-10T11:08:12.594Z,2.90
2019-05-10T11:10:40.598Z,3.90
2019-05-10T11:13:17.852Z,3.37
2019-05-10T11:15:39.152Z,2.80
2019-05-10T11:18:06.628Z,3.30
2019-05-10T11:20:34.198Z,3.10
2019-05-10T11:23:01.659Z,3.40
2019-05-10T11:25:29.238Z,3.53
2019-05-10T11:27:58.707Z,3.57
2019-05-10T11:30:26.145Z,3.30
2019-05-10T11:32:53.631Z,3.80
2019-05-10T11:35:29.477Z,3.30
2019-05-10T11:37:51.020Z,4.23
2019-05-10T11:40:27.753Z,3.93
2019-05-10T11:42:48.387Z,4.17
2019-05-10T11:45:16.299Z,4.27
2019-05-10T11:47:48.105Z,4.70
2019-05-10T11:50:30.715Z,3.60
2019-05-10T11:52:51.319Z,4.17
2019-05-10T11:55:21.416Z,4.30
2019-05-10T11:57:56.671Z,3.80
2019-05-10T12:03:11.442Z,4.27
2019-05-10T12:05:22.725Z,3.20
2019-05-10T12:07:51.701Z,4.07
2019-05-10T12:10:24.350Z,4.20
2019-05-10T12:15:25.163Z,3.50
2019-05-10T12:17:58.643Z,4.43
2019-05-10T12:20:30.320Z,3.90
2019-05-10T12:22:51.754Z,3.67
2019-05-10T12:25:37.918Z,3.60
2019-05-10T12:26:19.808Z,3.77
2019-05-10T12:26:31.162Z,3.80
2019-05-10T12:27:51.490Z,2.67
2019-05-10T12:30:21.599Z,3.20
2019-05-10T12:33:02.244Z,2.87
2019-05-10T12:35:21.059Z,3.10
2019-05-10T12:37:53.227Z,3.10
2019-05-10T12:40:18.552Z,3.50
2019-05-10T12:42:47.183Z,2.90
2019-05-10T12:45:15.097Z,2.70
2019-05-10T12:47:43.266Z,3.20
2019-05-10T12:50:10.854Z,3.30
2019-05-10T12:52:38.436Z,3.87
2019-05-10T12:55:06.818Z,3.70
2019-05-10T12:57:34.303Z,3.73
2019-05-10T13:00:06.658Z,4.30
2019-05-10T13:02:32.568Z,3.70
2019-05-10T13:04:59.953Z,3.97
2019-05-10T13:07:27.483Z,3.67
2019-05-10T13:10:01.316Z,3.40
2019-05-10T13:12:24.517Z,2.60
2019-05-10T13:14:52.897Z,2.57
2019-05-10T13:17:20.847Z,2.90
2019-05-10T13:19:52.673Z,2.93
2019-05-10T13:22:20.025Z,2.97
2019-05-10T13:24:47.398Z,2.57
2019-05-10T13:27:15.044Z,2.60
2019-05-10T13:29:46.960Z,3.50
2019-05-10T13:32:14.854Z,2.90
2019-05-10T13:34:41.376Z,3.43
2019-05-10T13:37:13.726Z,2.67
2019-05-10T13:39:38.282Z,2.80
2019-05-10T13:42:09.469Z,2.63
2019-05-10T13:44:37.116Z,3.10
2019-05-10T13:47:05.769Z,2.40
2019-05-10T13:49:48.662Z,2.60
2019-05-10T13:52:15.396Z,2.43
2019-05-10T13:54:43.056Z,2.30
2019-05-10T13:57:11.153Z,2.47
2019-05-10T13:59:38.875Z,2.80
2019-05-10T14:02:06.320Z,3.10
2019-05-10T14:04:38.529Z,3.70
2019-05-10T14:07:03.409Z,4.17
2019-05-10T14:09:31.134Z,3.27
2019-05-10T14:11:58.866Z,3.57
2019-05-10T14:14:26.883Z,4.70
2019-05-10T14:16:54.694Z,3.00
2019-05-10T14:19:23.635Z,3.30
2019-05-10T14:21:52.039Z,3.10
2019-05-10T14:24:19.935Z,3.20
2019-05-10T14:26:51.580Z,2.70
2019-05-10T14:29:17.932Z,3.23
2019-05-10T14:31:45.775Z,2.77
2019-05-10T14:34:15.547Z,3.20
2019-05-10T14:36:43.877Z,3.10
2019-05-10T14:39:11.759Z,3.50
2019-05-10T14:41:40.125Z,3.50
2019-05-10T14:44:07.869Z,3.90
2019-05-10T14:46:35.381Z,3.53
2019-05-10T14:49:09.914Z,3.10
2019-05-10T14:51:49.575Z,2.97
2019-05-10T14:54:06.488Z,3.17
2019-05-10T14:56:31.619Z,3.00
2019-05-10T14:58:59.321Z,3.83
2019-05-10T15:01:26.950Z,3.37
2019-05-10T15:03:54.582Z,4.00
2019-05-10T15:06:22.270Z,3.10
2019-05-10T15:08:53.919Z,6.63
2019-05-10T15:11:26.567Z,3.67
2019-05-10T15:13:51.230Z,3.97
2019-05-10T15:16:27.247Z,3.07
2019-05-10T15:18:49.940Z,3.20
2019-05-10T15:21:37.279Z,2.87
2019-05-10T15:24:04.933Z,3.40
2019-05-10T15:26:37.617Z,3.33
2019-05-10T15:29:01.978Z,3.13
2019-05-10T15:31:30.823Z,2.67
2019-05-10T15:33:59.431Z,3.13
2019-05-10T15:36:29.570Z,3.17
2019-05-10T15:38:56.442Z,3.20
2019-05-10T15:41:24.405Z,3.03
2019-05-10T15:43:53.607Z,3.30
2019-05-10T15:46:23.389Z,3.33
2019-05-10T15:48:50.925Z,2.73
2019-05-10T15:51:18.930Z,2.90
2019-05-10T15:53:46.575Z,2.93
2019-05-10T15:56:14.376Z,3.20
2019-05-10T15:58:42.719Z,3.20
2019-05-10T16:01:14.089Z,4.47
2019-05-10T16:03:40.890Z,3.70
2019-05-10T16:06:08.794Z,4.10
2019-05-10T16:08:37.751Z,3.50
2019-05-10T16:11:18.158Z,3.70
2019-05-10T16:13:35.559Z,3.27
2019-05-10T16:16:03.142Z,3.40
2019-05-10T16:18:33.320Z,4.00
2019-05-10T16:21:03.640Z,3.67
2019-05-10T16:23:32.725Z,3.33
2019-05-10T16:26:00.337Z,3.70
2019-05-10T16:28:27.738Z,3.57
2019-05-10T16:30:55.971Z,3.23
2019-05-10T16:33:23.647Z,3.37
2019-05-10T16:35:52.058Z,4.10
2019-05-10T16:38:19.896Z,3.00
2019-05-10T16:40:56.779Z,3.97
2019-05-10T16:43:24.307Z,3.10
2019-05-10T16:46:08.351Z,3.50
2019-05-10T16:48:38.174Z,4.80
2019-05-10T16:51:09.819Z,3.87
2019-05-10T16:53:37.679Z,3.70
2019-05-10T16:56:04.590Z,5.30
2019-05-10T16:58:32.004Z,5.13
2019-05-10T17:00:59.512Z,4.67
2019-05-10T17:03:32.835Z,5.77
2019-05-10T17:06:04.222Z,5.43
2019-05-10T17:08:36.732Z,10.43
2019-05-10T17:11:09.586Z,4.10
2019-05-10T17:13:30.606Z,4.47
2019-05-10T17:15:58.150Z,3.27
2019-05-10T17:18:25.744Z,3.30
2019-05-10T17:20:54.387Z,3.53
2019-05-10T17:23:22.249Z,3.90
2019-05-10T17:25:50.057Z,3.97
2019-05-10T17:28:17.825Z,3.47
2019-05-10T17:30:45.756Z,3.70
2019-05-10T17:33:13.730Z,4.63
2019-05-10T17:35:42.694Z,3.93
2019-05-10T17:38:14.404Z,4.43
2019-05-10T17:40:42.169Z,3.93
2019-05-10T17:43:14.188Z,3.80
2019-05-10T17:45:40.475Z,4.10
2019-05-10T17:48:10.274Z,5.00
2019-05-10T17:50:37.925Z,5.13
2019-05-10T17:53:06.670Z,4.43
2019-05-10T17:55:34.443Z,3.80
2019-05-10T17:58:02.244Z,3.43
2019-05-10T18:00:30.174Z,3.70
2019-05-10T18:02:58.145Z,4.60
2019-05-10T18:05:25.566Z,3.60
2019-05-10T18:07:53.393Z,3.37
2019-05-10T18:10:20.932Z,3.50
2019-05-10T18:12:48.543Z,3.37
2019-05-10T18:15:16.542Z,4.10
2019-05-10T18:17:44.317Z,3.60
2019-05-10T18:20:14.749Z,4.40
2019-05-10T18:22:45.073Z,3.67
2019-05-10T18:25:20.215Z,3.60
2019-05-10T18:27:48.040Z,4.50
2019-05-10T18:30:17.272Z,4.57
2019-05-10T18:32:48.162Z,4.67
2019-05-10T18:38:17.886Z,3.93
2019-05-10T18:40:52.816Z,3.57
2019-05-10T18:43:24.391Z,4.67
2019-05-10T18:46:12.252Z,4.70
2019-05-10T18:48:40.938Z,4.40
2019-05-10T18:51:12.736Z,4.50
2019-05-10T18:53:46.293Z,4.00
2019-05-10T18:56:15.267Z,4.10
2019-05-10T18:58:47.882Z,4.00
2019-05-10T19:01:21.006Z,3.77
2019-05-10T19:03:49.398Z,3.40
2019-05-10T19:06:17.908Z,3.67
2019-05-10T19:08:45.826Z,4.43
2019-05-10T19:11:14.077Z,5.30
2019-05-10T19:13:47.875Z,5.30
2019-05-10T19:16:11.843Z,5.10
2019-05-10T19:18:39.354Z,5.60
2019-05-10T19:21:07.776Z,5.90
2019-05-10T19:23:36.414Z,4.97
2019-05-10T19:26:04.192Z,4.60
2019-05-10T19:28:31.956Z,5.03
2019-05-10T19:31:00.544Z,4.20
2019-05-10T19:33:35.606Z,4.27
2019-05-10T19:35:58.165Z,4.00
2019-05-10T19:38:25.622Z,3.73
2019-05-10T19:40:54.123Z,5.80
2019-05-10T19:43:24.003Z,5.30
2019-05-10T19:45:57.600Z,5.13
2019-05-10T19:48:21.820Z,5.13
2019-05-10T19:50:49.623Z,5.50
2019-05-10T19:53:17.395Z,7.20
2019-05-10T19:55:45.945Z,5.27
2019-05-10T19:58:14.027Z,5.20
2019-05-10T20:00:41.620Z,4.63
2019-05-10T20:03:09.868Z,5.60
2019-05-10T20:05:37.995Z,4.50
2019-05-10T20:08:06.109Z,4.17
2019-05-10T20:10:34.222Z,3.57
2019-05-10T20:13:02.314Z,4.30
2019-05-10T20:15:30.146Z,4.30
2019-05-10T20:17:58.313Z,4.03
2019-05-10T20:20:26.289Z,4.60
2019-05-10T20:22:56.329Z,4.57
2019-05-10T20:25:26.443Z,4.20
2019-05-10T20:27:54.389Z,4.63
2019-05-10T20:30:22.164Z,5.57
2019-05-10T20:32:50.251Z,4.33
2019-05-10T20:35:17.974Z,4.40
2019-05-10T20:38:00.637Z,5.00
2019-05-10T20:40:15.618Z,4.13
2019-05-10T20:42:43.390Z,5.20
2019-05-10T20:45:11.699Z,4.30
2019-05-10T20:47:39.459Z,4.43
2019-05-10T20:50:07.146Z,4.10
2019-05-10T20:52:34.879Z,4.80
2019-05-10T20:55:02.384Z,5.30
2019-05-10T20:57:29.997Z,5.00
2019-05-10T20:59:57.716Z,4.23
2019-05-10T21:02:25.136Z,5.33
2019-05-10T21:04:52.755Z,4.87
2019-05-10T21:07:20.482Z,4.47
2019-05-10T21:09:49.765Z,5.90
2019-05-10T21:12:17.331Z,5.47
2019-05-10T21:14:44.896Z,5.77
2019-05-10T21:17:12.630Z,5.03
2019-05-10T21:19:40.134Z,6.03
2019-05-10T21:22:07.739Z,5.73
2019-05-10T21:24:35.284Z,4.50
2019-05-10T21:27:02.970Z,6.37
2019-05-10T21:29:30.562Z,5.17
2019-05-10T21:31:58.082Z,5.80
2019-05-10T21:34:26.504Z,5.43
2019-05-10T21:36:54.161Z,4.57
2019-05-10T21:39:21.634Z,5.73
2019-05-10T21:41:49.327Z,5.47
2019-05-10T21:44:16.897Z,5.50
2019-05-10T21:46:44.510Z,5.00
2019-05-10T21:49:12.029Z,5.23
2019-05-10T21:51:39.571Z,5.37
2019-05-10T21:54:07.123Z,5.30
2019-05-10T21:56:36.107Z,4.77
2019-05-10T21:59:04.092Z,5.10
2019-05-10T22:01:31.638Z,4.73
2019-05-10T22:03:59.225Z,5.40
2019-05-10T22:06:26.773Z,5.00
2019-05-10T22:08:54.303Z,4.67
2019-05-10T22:11:21.837Z,5.53
2019-05-10T22:13:49.568Z,5.30
2019-05-10T22:16:17.086Z,4.70
2019-05-10T22:18:44.832Z,6.17
2019-05-10T22:21:12.329Z,4.70
2019-05-10T22:23:39.896Z,4.60
2019-05-10T22:26:07.323Z,5.03
2019-05-10T22:28:34.788Z,5.03
2019-05-10T22:31:03.226Z,5.20
2019-05-10T22:33:30.806Z,5.83
2019-05-10T22:35:58.491Z,5.13
2019-05-10T22:38:26.061Z,5.20
2019-05-10T22:40:53.715Z,7.00
2019-05-10T22:43:21.167Z,6.73
2019-05-10T22:45:48.752Z,6.20
2019-05-10T22:48:16.219Z,5.63
2019-05-10T22:50:43.870Z,5.83
2019-05-10T22:53:11.774Z,6.33
2019-05-10T22:55:39.420Z,5.63
2019-05-10T22:58:07.167Z,5.90
2019-05-10T23:00:34.818Z,5.50
2019-05-10T23:03:02.326Z,6.40
2019-05-10T23:05:29.682Z,7.20
2019-05-10T23:07:57.156Z,6.60
2019-05-10T23:10:24.701Z,6.93
2019-05-10T23:12:52.088Z,6.50
2019-05-10T23:15:19.818Z,6.40
2019-05-10T23:18:07.430Z,7.40
2019-05-10T23:20:35.101Z,7.20
2019-05-10T23:23:02.659Z,7.47
2019-05-10T23:25:30.738Z,6.90
2019-05-10T23:27:58.836Z,6.60
2019-05-10T23:30:26.411Z,6.37
2019-05-10T23:32:53.865Z,6.97
2019-05-10T23:35:21.286Z,6.77
2019-05-10T23:37:49.654Z,7.23
2019-05-10T23:40:17.251Z,6.00
2019-05-10T23:42:44.714Z,6.80
2019-05-10T23:45:12.299Z,7.07
2019-05-10T23:47:39.826Z,6.00
2019-05-10T23:50:07.426Z,6.70
2019-05-10T23:52:34.953Z,7.13
2019-05-10T23:55:02.382Z,7.47
2019-05-10T23:57:29.731Z,7.30
2019-05-10T23:59:57.160Z,7.80
